Time;durP1;ratioP1;P1;durP2;ratioP2;P2;SDS_P1;SDS_P2;PMS_P1;PMS_P2;Temp;Humidity;BMP_temperature;BMP_pressure;BME280_temperature;BME280_humidity;BME280_pressure;Samples;Min_cycle;Max_cycle;Signal;HPM_P1;HPM_P2
2022/05/28 00:09:59;;;;;;;2.83;1.67;;;24.10;28.50;;;;;;20918780;28;20071;-70
2022/05/28 00:20:02;;;;;;;;;;;24.10;28.80;;;;;;20918324;28;20072;-70
2022/05/28 00:30:06;;;;;;;3.00;1.20;;;24.00;29.60;;;;;;20918106;28;20348;-70
2022/05/28 00:40:12;;;;;;;2.85;1.10;;;23.90;30.40;;;;;;20918292;28;20464;-69
2022/05/28 00:50:16;;;;;;;1.65;1.00;;;23.80;31.20;;;;;;20914681;28;20059;-70
2022/05/28 01:00:21;;;;;;;1.58;1.17;;;23.80;32.10;;;;;;20876172;28;1191402;-71
2022/05/28 01:10:34;;;;;;;3.30;1.10;;;23.80;32.80;;;;;;20918867;28;20452;-69
2022/05/28 01:20:56;;;;;;;3.25;1.17;;;23.60;33.20;;;;;;20917293;28;20102;-71
2022/05/28 01:31:05;;;;;;;2.55;1.13;;;23.40;33.60;;;;;;20917347;28;20088;-67
2022/05/28 01:41:10;;;;;;;2.63;1.23;;;23.30;34.00;;;;;;20915331;28;20135;-63
2022/05/28 01:51:14;;;;;;;2.67;0.93;;;23.20;34.10;;;;;;20915428;28;20049;-68
2022/05/28 02:01:17;;;;;;;3.35;1.17;;;23.10;34.40;;;;;;20915066;28;20521;-70
2022/05/28 02:11:21;;;;;;;;;;;23.00;35.00;;;;;;20915338;28;20053;-70
2022/05/28 02:21:32;;;;;;;3.53;1.05;;;22.80;35.50;;;;;;20913824;28;19920;-63
2022/05/28 02:31:36;;;;;;;3.40;1.35;;;22.80;36.00;;;;;;20912847;28;20049;-66
2022/05/28 02:41:41;;;;;;;4.68;1.70;;;22.70;36.10;;;;;;20912220;28;20072;-66
2022/05/28 02:51:44;;;;;;;4.68;1.20;;;22.60;36.50;;;;;;20911672;28;20056;-64
2022/05/28 03:01:46;;;;;;;3.87;1.30;;;22.50;36.70;;;;;;20911223;28;20041;-65
2022/05/28 03:11:48;;;;;;;2.90;1.63;;;22.40;37.00;;;;;;20910828;28;20484;-66
2022/05/28 03:21:51;;;;;;;1.70;1.10;;;22.20;37.20;;;;;;20910443;28;20044;-66
2022/05/28 03:31:53;;;;;;;3.20;1.60;;;22.10;37.60;;;;;;20913629;28;20053;-65
2022/05/28 03:41:56;;;;;;;3.70;1.35;;;22.10;37.70;;;;;;20912649;28;20045;-71
2022/05/28 03:51:58;;;;;;;4.03;1.10;;;21.90;37.80;;;;;;20917320;28;20139;-68
2022/05/28 04:02:20;;;;;;;2.78;1.40;;;21.80;37.90;;;;;;20923581;28;20048;-69
2022/05/28 04:12:41;;;;;;;3.17;1.27;;;21.70;38.30;;;;;;20923175;28;20045;-65
2022/05/28 04:23:03;;;;;;;5.72;1.50;;;21.60;38.50;;;;;;20922124;28;20052;-67
2022/05/28 04:33:14;;;;;;;2.72;1.50;;;21.50;39.00;;;;;;20921581;28;20052;-69
2022/05/28 04:43:18;;;;;;;5.18;1.85;;;21.30;39.60;;;;;;20921672;28;20060;-67
2022/05/28 04:53:23;;;;;;;2.97;1.92;;;21.20;40.00;;;;;;20918520;28;20095;-65
2022/05/28 05:03:26;;;;;;;5.32;2.00;;;21.20;40.40;;;;;;20918246;28;20419;-67
2022/05/28 05:13:29;;;;;;;5.55;1.80;;;21.00;40.80;;;;;;20918757;28;20044;-69
2022/05/28 05:23:40;;;;;;;2.63;1.30;;;20.90;41.30;;;;;;20918319;28;20561;-70
2022/05/28 05:33:43;;;;;;;2.75;1.10;;;21.00;40.70;;;;;;20917665;28;20131;-71
2022/05/28 05:43:45;;;;;;;4.67;1.23;;;21.10;40.20;;;;;;20917433;28;20053;-65
2022/05/28 05:53:48;;;;;;;2.92;1.15;;;21.00;40.50;;;;;;20916410;28;20130;-69
2022/05/28 06:03:50;;;;;;;5.27;1.70;;;21.10;40.40;;;;;;20914353;28;20053;-68
2022/05/28 06:13:52;;;;;;;1.97;1.30;;;21.10;40.50;;;;;;20912463;28;20087;-72
2022/05/28 06:23:59;;;;;;;4.28;1.52;;;21.20;40.10;;;;;;20915077;28;20056;-63
2022/05/28 06:34:02;;;;;;;5.75;1.17;;;21.20;40.40;;;;;;20920841;28;20447;-67
2022/05/28 06:44:04;;;;;;;3.08;1.40;;;21.30;40.30;;;;;;20918691;28;20053;-70
2022/05/28 06:54:06;;;;;;;3.03;1.50;;;21.50;40.00;;;;;;20910325;28;20080;-70
2022/05/28 07:04:08;;;;;;;5.63;1.60;;;22.00;39.40;;;;;;20911181;28;20467;-69
2022/05/28 07:14:10;;;;;;;2.93;1.47;;;22.70;38.50;;;;;;20911439;28;20136;-72
2022/05/28 07:24:14;;;;;;;4.18;1.42;;;23.30;37.60;;;;;;20915248;28;20045;-72
2022/05/28 07:34:16;;;;;;;2.70;1.27;;;23.80;36.90;;;;;;20929554;28;20049;-67
2022/05/28 07:44:19;;;;;;;5.37;1.73;;;24.30;36.30;;;;;;20926212;28;20532;-67
2022/05/28 07:54:21;;;;;;;6.20;2.08;;;24.70;35.80;;;;;;20924416;28;20051;-70
2022/05/28 08:04:23;;;;;;;5.32;1.75;;;25.10;35.50;;;;;;20923539;28;20475;-65
2022/05/28 08:14:25;;;;;;;7.47;1.70;;;25.50;35.00;;;;;;20923281;28;20493;-70
2022/05/28 08:24:28;;;;;;;4.45;2.08;;;25.50;34.50;;;;;;20922221;28;20044;-66
2022/05/28 08:34:33;;;;;;;4.38;1.80;;;25.80;34.30;;;;;;20925011;28;20485;-69
2022/05/28 08:44:39;;;;;;;7.65;2.10;;;26.10;33.60;;;;;;20923929;28;20055;-71
2022/05/28 08:55:00;;;;;;;6.28;2.05;;;26.30;32.80;;;;;;20920614;28;20404;-68
2022/05/28 09:05:03;;;;;;;6.27;2.20;;;26.60;32.60;;;;;;20918373;28;20110;-68
2022/05/28 09:15:05;;;;;;;12.52;1.80;;;26.70;32.10;;;;;;20853333;28;20050;-57
2022/05/28 09:25:08;;;;;;;5.80;1.40;;;26.60;32.50;;;;;;20832758;28;20053;-60
2022/05/28 09:35:42;;;;;;;2.80;1.45;;;26.70;33.20;;;;;;20833608;28;20449;-56
2022/05/28 09:46:15;;;;;;;3.70;1.73;;;26.70;32.90;;;;;;20822900;28;20054;-71
2022/05/28 09:56:23;;;;;;;4.82;1.70;;;27.10;32.90;;;;;;20579761;28;20063;-60
2022/05/28 10:06:26;;;;;;;5.20;2.25;;;27.20;32.10;;;;;;20579687;28;20129;-58
2022/05/28 10:16:40;;;;;;;6.65;1.60;;;27.10;31.70;;;;;;20589356;28;20054;-55
2022/05/28 10:26:49;;;;;;;10.88;2.28;;;27.20;31.00;;;;;;20752495;28;20053;-53
2022/05/28 10:36:53;;;;;;;7.13;1.80;;;27.80;29.90;;;;;;20911774;28;20044;-58
2022/05/28 10:47:05;;;;;;;3.95;2.00;;;28.10;29.10;;;;;;20911526;28;20473;-58
2022/05/28 10:57:10;;;;;;;;;;;27.90;29.50;;;;;;20912724;28;20060;-59
2022/05/28 11:07:31;;;;;;;2.92;1.70;;;27.90;31.90;;;;;;20927939;28;19921;-72
2022/05/28 11:18:11;;;;;;;7.65;2.08;;;27.90;31.00;;;;;;20927530;28;20117;-68
2022/05/28 11:28:33;;;;;;;6.35;1.77;;;28.10;29.80;;;;;;20927113;28;20057;-70
2022/05/28 11:38:44;;;;;;;5.28;1.75;;;28.70;27.90;;;;;;20927423;28;20049;-71
2022/05/28 11:59:24;;;;;;;6.32;1.95;;;28.80;27.40;;;;;;20923659;28;20092;-65
2022/05/28 12:09:28;;;;;;;6.70;3.47;;;29.30;26.00;;;;;;20923596;28;20056;-67
2022/05/28 12:19:32;;;;;;;4.50;1.83;;;29.40;25.70;;;;;;20922581;28;20123;-63
2022/05/28 12:29:54;;;;;;;4.97;2.17;;;29.80;25.30;;;;;;20922042;28;20044;-70
2022/05/28 12:40:23;;;;;;;4.47;1.50;;;29.70;24.50;;;;;;20921177;28;20099;-62
2022/05/28 12:50:40;;;;;;;5.97;1.45;;;30.20;23.10;;;;;;20919903;28;20089;-63
2022/05/28 13:00:49;;;;;;;3.15;1.40;;;29.90;22.30;;;;;;20920017;28;20049;-65
2022/05/28 13:10:54;;;;;;;4.18;1.55;;;30.30;20.60;;;;;;20919101;28;20064;-66
2022/05/28 13:21:33;;;;;;;4.20;1.95;;;30.60;21.00;;;;;;20917687;28;20456;-64
2022/05/28 13:31:46;;;;;;;5.00;1.73;;;30.90;21.10;;;;;;20917533;28;20048;-72
2022/05/28 13:41:51;;;;;;;9.13;4.93;;;30.80;21.20;;;;;;20916684;28;20052;-68
2022/05/28 13:52:01;;;;;;;5.35;1.90;;;30.90;21.40;;;;;;20915210;28;20456;-66
2022/05/28 14:02:12;;;;;;;5.70;1.45;;;30.90;21.30;;;;;;20914458;28;20049;-69
2022/05/28 14:12:14;;;;;;;4.95;1.30;;;30.80;21.30;;;;;;20914471;28;20489;-63
2022/05/28 14:22:28;;;;;;;2.90;1.33;;;30.90;21.50;;;;;;20944691;28;20106;-66
2022/05/28 14:32:39;;;;;;;4.25;1.67;;;31.00;21.30;;;;;;20912788;28;20408;-64
2022/05/28 14:42:43;;;;;;;4.43;3.22;;;31.30;20.30;;;;;;20912316;28;20041;-72
2022/05/28 14:52:45;;;;;;;7.28;1.33;;;31.20;20.70;;;;;;20912363;28;20084;-70
2022/05/28 15:02:47;;;;;;;6.10;2.60;;;31.10;20.70;;;;;;20915830;28;20132;-70
2022/05/28 15:12:49;;;;;;;4.45;1.40;;;31.40;20.50;;;;;;20927847;28;20049;-72
2022/05/28 15:22:51;;;;;;;5.20;1.50;;;31.60;19.70;;;;;;20969300;28;20049;-71
2022/05/28 15:32:54;;;;;;;3.80;1.60;;;31.50;19.90;;;;;;20920696;28;20057;-69
2022/05/28 15:42:55;;;;;;;2.85;1.40;;;31.50;19.40;;;;;;20916996;28;20124;-70
2022/05/28 15:52:58;;;;;;;2.08;1.23;;;;;;;;;;20926860;28;20060;-68
2022/05/28 16:03:03;;;;;;;3.85;1.65;;;;;;;;;;20923914;28;20099;-57
2022/05/28 16:13:06;;;;;;;2.15;1.10;;;;;;;;;;20922453;28;20060;-60
2022/05/28 16:23:08;;;;;;;3.13;1.17;;;31.20;19.70;;;;;;20922977;28;20412;-67
2022/05/28 16:33:10;;;;;;;4.40;1.50;;;31.30;19.60;;;;;;20906103;28;20492;-54
2022/05/28 16:43:12;;;;;;;5.13;2.20;;;31.80;19.00;;;;;;20912451;28;20580;-68
2022/05/28 16:53:14;;;;;;;5.07;1.60;;;31.60;18.20;;;;;;20906310;28;20063;-65
2022/05/28 17:03:16;;;;;;;3.53;1.20;;;31.60;18.90;;;;;;20918218;28;20127;-65
2022/05/28 17:13:20;;;;;;;2.85;1.60;;;31.40;18.90;;;;;;20918628;28;20056;-69
2022/05/28 17:23:25;;;;;;;4.25;1.95;;;31.40;18.60;;;;;;20917601;28;20060;-68
2022/05/28 17:33:28;;;;;;;2.97;1.42;;;31.30;18.90;;;;;;20918227;28;20061;-68
2022/05/28 17:43:30;;;;;;;3.42;2.05;;;31.20;19.60;;;;;;20916048;28;20097;-66
2022/05/28 17:53:32;;;;;;;3.42;1.15;;;31.10;19.60;;;;;;20914358;28;20114;-65
2022/05/28 18:03:34;;;;;;;6.55;1.98;;;31.20;19.90;;;;;;20914190;28;20045;-67
2022/05/28 18:13:36;;;;;;;4.00;1.75;;;31.00;20.40;;;;;;20912802;28;20139;-69
2022/05/28 18:23:38;;;;;;;3.92;1.40;;;30.90;20.70;;;;;;20913353;28;20044;-68
2022/05/28 18:33:40;;;;;;;5.65;3.08;;;30.80;21.00;;;;;;20913334;28;20053;-73
2022/05/28 18:43:42;;;;;;;3.75;1.77;;;30.70;21.40;;;;;;20913154;28;20429;-66
2022/05/28 19:04:05;;;;;;;4.45;3.50;;;30.30;21.70;;;;;;20910675;28;20049;-68
2022/05/28 19:14:07;;;;;;;5.60;3.67;;;30.10;21.90;;;;;;20911814;28;20044;-65
2022/05/28 19:24:08;;;;;;;6.82;2.53;;;30.00;22.30;;;;;;20921135;28;20049;-68
2022/05/28 19:34:11;;;;;;;6.53;3.58;;;29.60;22.50;;;;;;20925691;28;20049;-63
2022/05/28 19:44:19;;;;;;;9.88;3.60;;;29.40;22.80;;;;;;20925727;28;20048;-67
2022/05/28 19:54:21;;;;;;;7.93;3.83;;;29.20;23.00;;;;;;20925393;28;20053;-66
2022/05/28 20:04:23;;;;;;;6.47;3.53;;;28.90;23.20;;;;;;20922078;28;20117;-67
2022/05/28 20:14:33;;;;;;;7.82;3.88;;;28.70;23.30;;;;;;20921869;28;20045;-67
2022/05/28 20:24:38;;;;;;;5.93;3.47;;;28.70;23.30;;;;;;20922200;28;20045;-66
2022/05/28 20:34:42;;;;;;;7.13;4.18;;;28.50;23.50;;;;;;20920778;28;20049;-68
2022/05/28 20:44:44;;;;;;;6.13;4.00;;;28.30;24.10;;;;;;20920598;28;20091;-65
2022/05/28 20:54:46;;;;;;;9.65;4.38;;;28.20;24.00;;;;;;20919847;28;20134;-67
2022/05/28 21:04:49;;;;;;;11.23;4.18;;;28.20;24.20;;;;;;20918781;28;20048;-66
2022/05/28 21:14:51;;;;;;;12.45;5.30;;;28.10;25.00;;;;;;20919025;28;20507;-65
2022/05/28 21:24:52;;;;;;;5.88;3.95;;;27.80;25.20;;;;;;20917791;28;20099;-66
2022/05/28 21:34:56;;;;;;;6.68;3.35;;;27.60;25.80;;;;;;20917974;28;20451;-68
2022/05/28 21:44:58;;;;;;;5.63;3.15;;;27.40;26.20;;;;;;20915093;28;20124;-68
2022/05/28 21:54:59;;;;;;;7.57;3.25;;;27.30;26.60;;;;;;20914988;28;20060;-64
2022/05/28 22:05:03;;;;;;;4.15;2.65;;;27.10;27.00;;;;;;20914132;28;20056;-67
2022/05/28 22:15:05;;;;;;;8.82;3.17;;;27.00;27.10;;;;;;20914514;28;20504;-64
2022/05/28 22:25:08;;;;;;;5.45;2.65;;;26.70;27.40;;;;;;20912984;28;20056;-63
2022/05/28 22:35:12;;;;;;;5.57;2.90;;;26.50;27.90;;;;;;20913060;28;20078;-68
2022/05/28 22:45:20;;;;;;;7.72;3.00;;;26.20;28.50;;;;;;20911414;28;20131;-67
2022/05/28 22:55:22;;;;;;;5.15;2.83;;;26.00;29.10;;;;;;20910944;28;20056;-67
2022/05/28 23:05:26;;;;;;;6.60;3.40;;;26.00;29.40;;;;;;20909963;28;20057;-66
2022/05/28 23:15:29;;;;;;;8.02;2.80;;;25.90;29.80;;;;;;20911263;28;20053;-67
2022/05/28 23:25:49;;;;;;;3.95;2.65;;;25.70;30.30;;;;;;20911900;28;20053;-68
2022/05/28 23:35:51;;;;;;;7.05;2.55;;;25.50;30.80;;;;;;20910595;28;20049;-67
2022/05/28 23:45:57;;;;;;;8.18;3.00;;;25.30;31.30;;;;;;20909766;28;20067;-66
2022/05/28 23:56:00;;;;;;;5.80;2.90;;;25.20;31.80;;;;;;20909668;28;20068;-66
